Time;durP1;ratioP1;P1;durP2;ratioP2;P2;SDS_P1;SDS_P2;PMS_P1;PMS_P2;Temp;Humidity;BMP_temperature;BMP_pressure;BME280_temperature;BME280_humidity;BME280_pressure;Samples;Min_cycle;Max_cycle;Signal;HPM_P1;HPM_P2
2021/04/26 00:02:01;;;;;;;1.98;1.95;;;;;;;;;;5028321;28;20068;-43
2021/04/26 00:04:28;;;;;;;2.53;2.42;;;;;;;;;;5029392;28;20065;-43
2021/04/26 00:06:54;;;;;;;2.10;2.00;;;;;;;;;;5024986;28;20041;-46
2021/04/26 00:09:21;;;;;;;1.58;1.58;;;;;;;;;;5019806;28;20041;-42
2021/04/26 00:11:47;;;;;;;2.50;2.30;;;;;;;;;;5028878;28;20041;-42
2021/04/26 00:14:13;;;;;;;2.42;2.33;;;;;;;;;;5027589;28;20103;-43
2021/04/26 00:16:39;;;;;;;2.92;2.80;;;;;;;;;;5022458;28;20793;-41
2021/04/26 00:19:06;;;;;;;2.90;2.70;;;;;;;;;;5025765;28;20038;-46
2021/04/26 00:21:33;;;;;;;2.13;2.03;;;;;;;;;;5029635;28;20041;-42
2021/04/26 00:23:59;;;;;;;1.98;1.90;;;;;;;;;;5019230;28;20088;-43
2021/04/26 00:26:26;;;;;;;2.00;1.90;;;;;;;;;;5026664;28;20059;-43
2021/04/26 00:28:52;;;;;;;2.50;2.38;;;;;;;;;;5019896;28;20037;-42
2021/04/26 00:31:18;;;;;;;2.83;2.72;;;;;;;;;;5027577;28;20099;-42
2021/04/26 00:33:45;;;;;;;2.10;2.10;;;;;;;;;;5027695;28;20120;-42
2021/04/26 00:36:11;;;;;;;3.30;2.47;;;;;;;;;;5016951;28;20041;-45
2021/04/26 00:38:38;;;;;;;2.00;2.00;;;;;;;;;;5023697;28;20045;-43
2021/04/26 00:41:04;;;;;;;2.78;2.60;;;;;;;;;;5022832;28;20418;-41
2021/04/26 00:43:31;;;;;;;2.40;2.25;;;;;;;;;;5024154;28;20079;-43
2021/04/26 00:45:57;;;;;;;2.08;2.08;;;;;;;;;;5017399;28;20077;-42
2021/04/26 00:48:23;;;;;;;2.10;2.10;;;;;;;;;;5016484;28;20048;-42
2021/04/26 00:50:50;;;;;;;3.60;1.77;;;;;;;;;;5025398;28;20037;-42
2021/04/26 00:53:16;;;;;;;2.00;1.92;;;;;;;;;;5023967;28;20053;-43
2021/04/26 00:55:43;;;;;;;2.40;2.30;;;;;;;;;;5022725;28;20486;-42
2021/04/26 00:58:10;;;;;;;2.60;2.50;;;;;;;;;;5019297;28;20057;-43
2021/04/26 01:00:36;;;;;;;1.83;1.67;;;;;;;;;;5017662;28;20046;-43
2021/04/26 01:03:03;;;;;;;2.08;1.98;;;;;;;;;;5024726;28;20033;-42
2021/04/26 01:05:31;;;;;;;2.33;2.00;;;;;;;;;;5028785;28;20037;-42
2021/04/26 01:07:57;;;;;;;1.75;1.75;;;;;;;;;;5028708;28;20523;-42
2021/04/26 01:10:25;;;;;;;2.03;1.92;;;;;;;;;;5024899;28;20034;-43
2021/04/26 01:12:51;;;;;;;2.10;1.98;;;;;;;;;;5014535;28;20514;-43
2021/04/26 01:15:21;;;;;;;2.72;2.63;;;;;;;;;;5023626;28;20044;-43
2021/04/26 01:17:54;;;;;;;2.50;2.38;;;;;;;;;;5021008;28;20069;-42
2021/04/26 01:20:38;;;;;;;1.77;1.77;;;;;;;;;;5026476;28;20052;-44
2021/04/26 01:23:24;;;;;;;2.22;2.10;;;;;;;;;;5027297;28;20474;-42
2021/04/26 01:25:50;;;;;;;2.03;2.03;;;;;;;;;;5018340;28;20045;-46
2021/04/26 01:28:36;;;;;;;2.20;2.03;;;;;;;;;;5023202;28;20038;-43
2021/04/26 01:31:34;;;;;;;2.65;2.13;;;;;;;;;;5029260;28;20061;-42
2021/04/26 01:34:01;;;;;;;2.28;2.28;;;;;;;;;;5019040;28;20050;-42
2021/04/26 01:36:28;;;;;;;4.72;2.35;;;;;;;;;;5032800;28;20037;-42
2021/04/26 01:38:55;;;;;;;2.50;2.40;;;;;;;;;;5031875;28;20046;-42
2021/04/26 01:41:26;;;;;;;2.67;2.45;;;;;;;;;;5031046;28;20029;-41
2021/04/26 01:43:53;;;;;;;2.20;2.20;;;;;;;;;;5026807;28;20121;-43
2021/04/26 01:46:21;;;;;;;2.65;2.55;;;;;;;;;;5030204;28;20053;-43
2021/04/26 01:48:48;;;;;;;2.53;2.42;;;;;;;;;;5033110;28;20468;-44
2021/04/26 01:51:15;;;;;;;3.22;3.08;;;;;;;;;;5031098;28;20512;-45
2021/04/26 01:53:42;;;;;;;3.00;2.75;;;;;;;;;;5025796;28;20042;-42
2021/04/26 01:56:09;;;;;;;2.83;2.40;;;;;;;;;;5026162;28;20034;-42
2021/04/26 01:58:40;;;;;;;2.72;2.72;;;;;;;;;;5028102;28;20532;-42
2021/04/26 02:01:06;;;;;;;2.63;2.53;;;;;;;;;;5022170;28;20053;-43
2021/04/26 02:03:34;;;;;;;2.63;2.63;;;;;;;;;;5029195;28;20392;-43
2021/04/26 02:06:00;;;;;;;2.78;2.58;;;;;;;;;;5031723;28;20037;-42
2021/04/26 02:08:27;;;;;;;3.05;2.95;;;;;;;;;;5023549;28;20498;-41
2021/04/26 02:10:54;;;;;;;2.17;2.15;;;;;;;;;;5025681;28;20033;-43
2021/04/26 02:13:22;;;;;;;3.28;2.83;;;;;;;;;;5019629;28;20046;-45
2021/04/26 02:15:49;;;;;;;2.53;2.42;;;;;;;;;;5029824;28;20095;-42
2021/04/26 02:18:16;;;;;;;2.15;2.15;;;;;;;;;;5031490;28;20057;-44
2021/04/26 02:20:42;;;;;;;2.97;2.78;;;;;;;;;;5023560;28;20073;-42
2021/04/26 02:23:08;;;;;;;3.10;2.83;;;;;;;;;;5021909;28;20493;-43
2021/04/26 02:25:35;;;;;;;2.20;2.10;;;;;;;;;;5018618;28;20069;-43
2021/04/26 02:28:02;;;;;;;1.80;1.80;;;;;;;;;;5029512;28;20033;-42
2021/04/26 02:30:28;;;;;;;2.60;2.50;;;;;;;;;;5031060;28;20053;-42
2021/04/26 02:33:01;;;;;;;2.72;2.58;;;;;;;;;;5023035;28;20390;-43
2021/04/26 02:35:42;;;;;;;2.67;2.63;;;;;;;;;;5030599;28;20041;-44
2021/04/26 02:38:12;;;;;;;3.20;3.00;;;;;;;;;;5027253;28;20041;-43
2021/04/26 02:40:40;;;;;;;3.80;3.60;;;;;;;;;;5029832;28;20041;-43
2021/04/26 02:43:07;;;;;;;3.28;3.17;;;;;;;;;;5028180;28;20041;-42
2021/04/26 02:45:35;;;;;;;2.78;2.67;;;;;;;;;;5017761;28;20034;-42
2021/04/26 02:48:02;;;;;;;3.15;3.05;;;;;;;;;;5028576;28;20076;-44
2021/04/26 02:50:30;;;;;;;4.28;3.97;;;;;;;;;;5031957;28;20527;-42
2021/04/26 02:52:56;;;;;;;3.28;3.17;;;;;;;;;;5030618;28;20405;-43
2021/04/26 02:55:23;;;;;;;6.22;5.90;;;;;;;;;;5030197;28;20057;-43
2021/04/26 02:57:50;;;;;;;7.47;7.18;;;;;;;;;;5032210;28;20037;-42
2021/04/26 03:00:24;;;;;;;10.30;9.93;;;;;;;;;;5027358;28;20040;-42
2021/04/26 03:02:51;;;;;;;12.25;12.00;;;;;;;;;;5030878;28;20405;-42
2021/04/26 03:05:17;;;;;;;13.07;12.88;;;;;;;;;;5020433;28;20064;-42
2021/04/26 03:07:44;;;;;;;15.68;15.25;;;;;;;;;;5021716;28;20458;-47
2021/04/26 03:10:12;;;;;;;16.88;16.38;;;;;;;;;;5031343;28;20038;-45
2021/04/26 03:12:40;;;;;;;15.25;14.88;;;;;;;;;;5029425;28;20445;-42
2021/04/26 03:15:08;;;;;;;15.00;14.68;;;;;;;;;;5023008;28;20041;-44
2021/04/26 03:17:35;;;;;;;17.00;16.45;;;;;;;;;;5020690;28;20061;-44
2021/04/26 03:20:04;;;;;;;13.13;12.63;;;;;;;;;;5023057;28;20077;-42
2021/04/26 03:22:31;;;;;;;14.27;14.07;;;;;;;;;;5027186;28;20042;-46
2021/04/26 03:24:57;;;;;;;15.73;15.13;;;;;;;;;;5023384;28;20442;-42
2021/04/26 03:27:24;;;;;;;12.23;11.73;;;;;;;;;;5019232;28;20420;-42
2021/04/26 03:29:50;;;;;;;14.10;13.82;;;;;;;;;;5023016;28;20056;-43
2021/04/26 03:32:17;;;;;;;15.38;14.95;;;;;;;;;;5026758;28;20060;-43
2021/04/26 03:34:44;;;;;;;13.82;13.50;;;;;;;;;;5030264;28;20041;-43
2021/04/26 03:37:17;;;;;;;11.98;11.82;;;;;;;;;;5021598;28;20042;-44
2021/04/26 03:39:44;;;;;;;10.68;10.48;;;;;;;;;;5028586;28;20492;-43
2021/04/26 03:42:11;;;;;;;10.25;9.95;;;;;;;;;;5026688;28;20037;-42
2021/04/26 03:44:38;;;;;;;14.63;14.00;;;;;;;;;;5026571;28;20061;-42
2021/04/26 03:47:05;;;;;;;14.38;13.98;;;;;;;;;;5024345;28;20049;-42
2021/04/26 03:49:31;;;;;;;12.95;12.70;;;;;;;;;;5030758;28;20061;-44
2021/04/26 03:51:58;;;;;;;9.15;8.93;;;;;;;;;;5028358;28;20038;-42
2021/04/26 03:54:24;;;;;;;9.75;9.52;;;;;;;;;;5030561;28;20060;-42
2021/04/26 03:56:50;;;;;;;12.95;12.75;;;;;;;;;;5023693;28;20475;-41
2021/04/26 03:59:17;;;;;;;14.68;14.15;;;;;;;;;;5019891;28;20068;-44
2021/04/26 04:01:44;;;;;;;13.90;13.55;;;;;;;;;;5028031;28;20445;-42
2021/04/26 04:04:10;;;;;;;14.25;14.05;;;;;;;;;;5029279;28;20064;-42
2021/04/26 04:06:36;;;;;;;13.85;13.48;;;;;;;;;;5029402;28;20128;-42
2021/04/26 04:09:04;;;;;;;14.00;13.18;;;;;;;;;;5028554;28;20128;-43
2021/04/26 04:11:30;;;;;;;15.38;14.98;;;;;;;;;;5029205;28;20440;-43
2021/04/26 04:13:57;;;;;;;14.85;14.45;;;;;;;;;;5019525;28;20065;-44
2021/04/26 04:16:23;;;;;;;9.70;9.50;;;;;;;;;;5028183;28;20473;-41
2021/04/26 04:18:50;;;;;;;15.13;14.82;;;;;;;;;;5017352;28;20050;-44
2021/04/26 04:21:16;;;;;;;16.95;16.45;;;;;;;;;;5027185;28;20065;-44
2021/04/26 04:23:42;;;;;;;15.73;15.38;;;;;;;;;;5027769;28;20053;-41
2021/04/26 04:26:08;;;;;;;17.77;17.35;;;;;;;;;;5030253;28;20116;-42
2021/04/26 04:28:35;;;;;;;20.65;19.75;;;;;;;;;;5025942;28;20418;-42
2021/04/26 04:31:02;;;;;;;20.33;19.45;;;;;;;;;;5028404;28;20042;-43
2021/04/26 04:33:28;;;;;;;19.98;19.58;;;;;;;;;;5026602;28;20489;-42
2021/04/26 04:35:56;;;;;;;17.25;16.85;;;;;;;;;;5028034;28;20045;-42
2021/04/26 04:38:25;;;;;;;20.13;19.48;;;;;;;;;;5022825;28;20076;-41
2021/04/26 04:40:52;;;;;;;18.65;18.25;;;;;;;;;;5027222;28;20096;-45
2021/04/26 04:43:18;;;;;;;20.05;19.08;;;;;;;;;;5025237;28;20042;-44
2021/04/26 04:45:44;;;;;;;19.88;19.33;;;;;;;;;;5022963;28;20049;-42
2021/04/26 04:48:11;;;;;;;19.02;18.50;;;;;;;;;;5016497;28;20070;-42
2021/04/26 04:50:37;;;;;;;17.13;16.73;;;;;;;;;;5029597;28;20045;-44
2021/04/26 04:53:04;;;;;;;18.52;17.88;;;;;;;;;;5027096;28;20060;-45
2021/04/26 04:55:30;;;;;;;22.02;21.38;;;;;;;;;;5032332;28;20041;-43
2021/04/26 04:57:56;;;;;;;21.63;21.02;;;;;;;;;;5028129;28;20425;-42
2021/04/26 05:00:23;;;;;;;19.30;18.67;;;;;;;;;;5033170;28;20548;-41
2021/04/26 05:02:49;;;;;;;19.15;18.83;;;;;;;;;;5020449;28;20840;-41
2021/04/26 05:05:16;;;;;;;18.15;16.92;;;;;;;;;;5018537;28;20095;-44
2021/04/26 05:07:42;;;;;;;18.83;18.27;;;;;;;;;;5034661;28;20043;-42
2021/04/26 05:10:09;;;;;;;19.90;19.60;;;;;;;;;;5025771;28;20037;-43
2021/04/26 05:12:35;;;;;;;17.35;16.95;;;;;;;;;;5011303;28;20042;-45
2021/04/26 05:15:02;;;;;;;5.93;5.82;;;;;;;;;;5024516;28;20052;-41
2021/04/26 05:17:28;;;;;;;13.45;13.13;;;;;;;;;;5017876;28;20050;-42
2021/04/26 05:19:55;;;;;;;3.58;3.47;;;;;;;;;;5028269;28;20057;-43
2021/04/26 05:22:21;;;;;;;3.33;3.28;;;;;;;;;;5026739;28;20485;-45
2021/04/26 05:24:47;;;;;;;3.65;3.45;;;;;;;;;;5028670;28;20041;-47
2021/04/26 05:27:14;;;;;;;4.80;3.90;;;;;;;;;;5027548;28;20481;-48
2021/04/26 05:29:40;;;;;;;7.60;7.40;;;;;;;;;;5028039;28;20095;-45
2021/04/26 05:32:06;;;;;;;7.38;7.28;;;;;;;;;;5027646;28;20076;-45
2021/04/26 05:34:33;;;;;;;6.30;6.00;;;;;;;;;;5027819;28;20041;-45
2021/04/26 05:36:59;;;;;;;4.95;4.80;;;;;;;;;;5029543;28;20045;-47
2021/04/26 05:39:25;;;;;;;5.80;5.28;;;;;;;;;;5027285;28;20053;-44
2021/04/26 05:41:52;;;;;;;5.75;5.35;;;;;;;;;;5020585;28;20061;-47
2021/04/26 05:44:18;;;;;;;6.57;5.47;;;;;;;;;;5028416;28;20438;-45
2021/04/26 05:46:44;;;;;;;4.85;4.75;;;;;;;;;;5026265;28;20049;-47
2021/04/26 05:49:10;;;;;;;4.55;4.03;;;;;;;;;;5028473;28;20037;-46
2021/04/26 05:51:37;;;;;;;4.45;4.18;;;;;;;;;;5028066;28;20073;-45
2021/04/26 05:54:03;;;;;;;5.43;3.70;;;;;;;;;;5018993;28;20052;-48
2021/04/26 05:56:29;;;;;;;6.32;6.05;;;;;;;;;;5027964;28;20049;-45
2021/04/26 05:58:56;;;;;;;6.50;6.15;;;;;;;;;;5026336;28;20086;-49
2021/04/26 06:01:22;;;;;;;5.80;5.10;;;;;;;;;;5018009;28;20469;-49
2021/04/26 06:03:48;;;;;;;3.22;2.78;;;;;;;;;;5020300;28;20034;-45
2021/04/26 06:06:15;;;;;;;4.07;3.88;;;;;;;;;;5028372;28;20504;-47
2021/04/26 06:08:41;;;;;;;3.08;2.97;;;;;;;;;;5026876;28;20076;-46
2021/04/26 06:11:08;;;;;;;4.35;4.20;;;;;;;;;;5027769;28;20034;-46
2021/04/26 06:13:37;;;;;;;3.92;3.63;;;;;;;;;;5027060;28;20680;-47
2021/04/26 06:16:04;;;;;;;5.43;5.03;;;;;;;;;;5026133;28;20049;-45
2021/04/26 06:18:30;;;;;;;4.45;4.25;;;;;;;;;;5031790;28;20049;-45
2021/04/26 06:20:57;;;;;;;3.97;3.78;;;;;;;;;;5028742;28;20041;-47
2021/04/26 06:23:23;;;;;;;4.82;4.47;;;;;;;;;;5018800;28;20034;-45
2021/04/26 06:25:50;;;;;;;4.97;4.53;;;;;;;;;;5030533;28;20045;-46
2021/04/26 06:28:16;;;;;;;5.13;4.93;;;;;;;;;;5030318;28;20494;-45
2021/04/26 06:30:43;;;;;;;4.97;4.00;;;;;;;;;;5032720;28;20041;-46
2021/04/26 06:33:15;;;;;;;7.18;4.82;;;;;;;;;;5027145;28;20064;-45
2021/04/26 06:35:45;;;;;;;4.35;4.18;;;;;;;;;;5031549;28;20358;-46
2021/04/26 06:38:11;;;;;;;4.57;4.28;;;;;;;;;;5030780;28;20053;-46
2021/04/26 06:40:38;;;;;;;5.75;5.45;;;;;;;;;;5030830;28;20052;-45
2021/04/26 06:43:05;;;;;;;10.32;5.50;;;;;;;;;;5019077;28;20678;-46
2021/04/26 06:45:31;;;;;;;6.88;4.88;;;;;;;;;;5026467;28;20493;-46
2021/04/26 06:47:58;;;;;;;5.72;4.05;;;;;;;;;;5021225;28;20049;-45
2021/04/26 06:50:24;;;;;;;4.72;4.60;;;;;;;;;;5030243;28;20472;-45
2021/04/26 06:52:53;;;;;;;4.25;3.58;;;;;;;;;;5031036;28;20498;-45
2021/04/26 06:55:20;;;;;;;10.18;6.00;;;;;;;;;;5031774;28;20045;-46
2021/04/26 06:57:47;;;;;;;5.93;5.43;;;;;;;;;;5028658;28;20041;-45
2021/04/26 07:00:13;;;;;;;5.90;5.50;;;;;;;;;;5031975;28;20072;-45
2021/04/26 07:02:40;;;;;;;5.18;4.82;;;;;;;;;;5029846;28;20053;-46
2021/04/26 07:05:07;;;;;;;12.32;11.80;;;;;;;;;;5030488;28;20046;-47
2021/04/26 07:07:34;;;;;;;9.70;9.20;;;;;;;;;;5031203;28;20049;-47
2021/04/26 07:10:00;;;;;;;14.48;13.80;;;;;;;;;;5030214;28;20091;-48
2021/04/26 07:12:27;;;;;;;12.32;11.63;;;;;;;;;;5030744;28;20502;-46
2021/04/26 07:14:53;;;;;;;7.75;7.25;;;;;;;;;;5029526;28;20492;-46
2021/04/26 07:17:20;;;;;;;3.83;3.72;;;;;;;;;;5030046;28;20059;-45
2021/04/26 07:19:46;;;;;;;5.15;4.72;;;;;;;;;;5029976;28;20049;-47
2021/04/26 07:22:13;;;;;;;9.32;8.73;;;;;;;;;;5029519;28;20033;-45
2021/04/26 07:24:39;;;;;;;4.82;4.55;;;;;;;;;;5030366;28;20449;-46
2021/04/26 07:27:05;;;;;;;20.13;18.38;;;;;;;;;;5029566;28;20029;-47
2021/04/26 07:29:32;;;;;;;18.50;17.58;;;;;;;;;;5030380;28;20492;-46
2021/04/26 07:31:58;;;;;;;14.60;13.57;;;;;;;;;;5029118;28;20072;-47
2021/04/26 07:34:24;;;;;;;6.13;5.82;;;;;;;;;;5027912;28;20037;-46
2021/04/26 07:36:51;;;;;;;5.05;4.95;;;;;;;;;;5029699;28;20041;-48
2021/04/26 07:39:19;;;;;;;5.25;4.90;;;;;;;;;;5029194;28;20049;-50
2021/04/26 07:41:45;;;;;;;8.43;7.70;;;;;;;;;;5031026;28;20547;-52
2021/04/26 07:44:11;;;;;;;13.05;12.68;;;;;;;;;;5026754;28;20581;-52
2021/04/26 07:46:38;;;;;;;11.20;10.77;;;;;;;;;;5029507;28;20392;-52
2021/04/26 07:49:04;;;;;;;11.18;10.80;;;;;;;;;;5030396;28;20140;-53
2021/04/26 07:51:31;;;;;;;10.50;10.30;;;;;;;;;;5029220;28;20034;-53
2021/04/26 07:53:57;;;;;;;11.98;11.77;;;;;;;;;;5018257;28;20030;-54
2021/04/26 07:56:24;;;;;;;6.65;6.55;;;;;;;;;;5027604;28;20061;-54
2021/04/26 07:58:50;;;;;;;7.35;6.88;;;;;;;;;;5024969;28;20046;-53
2021/04/26 08:01:16;;;;;;;7.72;7.63;;;;;;;;;;5028847;28;20068;-50
2021/04/26 08:03:42;;;;;;;10.73;10.38;;;;;;;;;;5027512;28;20038;-53
2021/04/26 08:06:09;;;;;;;15.20;14.60;;;;;;;;;;5029267;28;20045;-53
2021/04/26 08:08:36;;;;;;;17.00;16.60;;;;;;;;;;5026576;28;20045;-51
2021/04/26 08:11:02;;;;;;;17.52;17.13;;;;;;;;;;5013968;28;20041;-52
2021/04/26 08:13:28;;;;;;;18.42;17.90;;;;;;;;;;5026004;28;20049;-49
2021/04/26 08:15:57;;;;;;;16.98;16.67;;;;;;;;;;5023031;28;20046;-50
2021/04/26 08:18:23;;;;;;;16.13;15.82;;;;;;;;;;5020611;28;20132;-50
2021/04/26 08:20:50;;;;;;;16.65;15.98;;;;;;;;;;5023504;28;20041;-49
2021/04/26 08:23:16;;;;;;;13.15;12.73;;;;;;;;;;5026887;28;20038;-48
2021/04/26 08:25:43;;;;;;;9.13;8.93;;;;;;;;;;5025237;28;20091;-47
2021/04/26 08:28:11;;;;;;;5.00;4.70;;;;;;;;;;5026965;28;20536;-46
2021/04/26 08:30:39;;;;;;;5.68;5.28;;;;;;;;;;5028809;28;20149;-46
2021/04/26 08:33:06;;;;;;;5.25;4.97;;;;;;;;;;5027528;28;20375;-48
2021/04/26 08:35:32;;;;;;;4.63;4.40;;;;;;;;;;5030138;28;20125;-47
2021/04/26 08:37:58;;;;;;;4.18;3.72;;;;;;;;;;5022999;28;20058;-46
2021/04/26 08:40:25;;;;;;;6.40;5.03;;;;;;;;;;5023286;28;20056;-47
2021/04/26 08:43:01;;;;;;;6.65;6.20;;;;;;;;;;5028385;28;20029;-46
2021/04/26 08:45:27;;;;;;;7.78;7.07;;;;;;;;;;5026154;28;20037;-46
2021/04/26 08:47:53;;;;;;;5.93;5.35;;;;;;;;;;5028714;28;20053;-49
2021/04/26 08:50:20;;;;;;;5.18;4.93;;;;;;;;;;5029331;28;20034;-46
2021/04/26 08:52:47;;;;;;;6.28;5.85;;;;;;;;;;5029631;28;20050;-49
2021/04/26 08:55:15;;;;;;;5.30;4.97;;;;;;;;;;5028186;28;20045;-46
2021/04/26 08:57:41;;;;;;;4.85;4.15;;;;;;;;;;5028800;28;20041;-46
2021/04/26 09:00:08;;;;;;;5.40;4.95;;;;;;;;;;5028635;28;20076;-46
2021/04/26 09:02:57;;;;;;;5.25;4.97;;;;;;;;;;5028013;28;20482;-46
2021/04/26 09:05:30;;;;;;;6.68;4.75;;;;;;;;;;5007038;28;20132;-47
2021/04/26 09:07:56;;;;;;;;;;;;;;;;;;5003520;28;20054;-46
2021/04/26 09:10:39;;;;;;;4.78;4.13;;;;;;;;;;4995209;28;20314;-45
2021/04/26 09:13:24;;;;;;;4.72;4.53;;;;;;;;;;5005949;28;20082;-47
2021/04/26 09:16:10;;;;;;;4.10;4.00;;;;;;;;;;5006064;28;20084;-47
2021/04/26 09:18:42;;;;;;;4.18;3.97;;;;;;;;;;5008083;28;20518;-45
2021/04/26 09:21:13;;;;;;;3.97;3.38;;;;;;;;;;5005256;28;20042;-48
2021/04/26 09:23:39;;;;;;;5.22;4.95;;;;;;;;;;5005722;28;20513;-46
2021/04/26 09:26:16;;;;;;;4.70;4.40;;;;;;;;;;4995302;28;20043;-49
2021/04/26 09:28:42;;;;;;;5.13;4.63;;;;;;;;;;5006720;28;20054;-45
2021/04/26 09:31:12;;;;;;;3.42;3.33;;;;;;;;;;5003536;28;20049;-47
2021/04/26 09:33:39;;;;;;;7.95;7.40;;;;;;;;;;5008263;28;20056;-49
2021/04/26 09:36:14;;;;;;;6.90;6.50;;;;;;;;;;5006842;28;20056;-46
2021/04/26 09:38:51;;;;;;;9.52;7.03;;;;;;;;;;5006912;28;20050;-47
2021/04/26 09:41:19;;;;;;;6.63;4.38;;;;;;;;;;5007461;28;20042;-45
2021/04/26 09:43:47;;;;;;;3.45;3.35;;;;;;;;;;5015138;28;20037;-46
2021/04/26 09:46:13;;;;;;;3.72;3.47;;;;;;;;;;5023802;28;20606;-46
2021/04/26 09:48:40;;;;;;;11.10;6.57;;;;;;;;;;5021954;28;20063;-46
2021/04/26 09:51:07;;;;;;;4.35;4.00;;;;;;;;;;5018287;28;20042;-46
2021/04/26 09:53:44;;;;;;;4.97;4.78;;;;;;;;;;5029111;28;20073;-47
2021/04/26 09:56:15;;;;;;;4.13;3.50;;;;;;;;;;5032134;28;20041;-46
2021/04/26 09:58:42;;;;;;;5.13;4.13;;;;;;;;;;5031973;28;20382;-46
2021/04/26 10:01:16;;;;;;;3.92;3.63;;;;;;;;;;5031063;28;20033;-46
2021/04/26 10:03:43;;;;;;;4.07;3.88;;;;;;;;;;5032827;28;20041;-46
2021/04/26 10:06:14;;;;;;;3.15;2.95;;;;;;;;;;5025641;28;20132;-47
2021/04/26 10:08:51;;;;;;;4.55;3.47;;;;;;;;;;5020304;28;20041;-48
2021/04/26 10:11:18;;;;;;;3.13;2.90;;;;;;;;;;5028186;28;20108;-45
2021/04/26 10:13:45;;;;;;;2.97;2.75;;;;;;;;;;5025444;28;20037;-45
2021/04/26 10:16:19;;;;;;;3.20;3.03;;;;;;;;;;5026654;28;20124;-48
2021/04/26 10:18:47;;;;;;;3.65;3.55;;;;;;;;;;5028286;28;20049;-47
2021/04/26 10:21:17;;;;;;;3.47;3.38;;;;;;;;;;5026774;28;20124;-47
2021/04/26 10:23:45;;;;;;;4.32;4.03;;;;;;;;;;5031490;28;20029;-46
2021/04/26 10:26:32;;;;;;;4.15;3.92;;;;;;;;;;5030920;28;20139;-47
2021/04/26 10:29:09;;;;;;;2.55;2.42;;;;;;;;;;5029349;28;20053;-47
2021/04/26 10:32:00;;;;;;;2.88;2.72;;;;;;;;;;5029006;28;20107;-48
2021/04/26 10:34:30;;;;;;;3.60;3.33;;;;;;;;;;5022643;28;20119;-47
2021/04/26 10:37:03;;;;;;;3.55;3.25;;;;;;;;;;5029462;28;20116;-47
2021/04/26 10:39:31;;;;;;;3.03;2.92;;;;;;;;;;5029404;28;20042;-47
2021/04/26 10:42:19;;;;;;;2.63;2.53;;;;;;;;;;5026630;28;20045;-46
2021/04/26 10:44:49;;;;;;;3.47;2.38;;;;;;;;;;5026795;28;20038;-47
2021/04/26 10:47:18;;;;;;;1.85;1.75;;;;;;;;;;5026632;28;20045;-48
2021/04/26 10:49:48;;;;;;;2.55;2.05;;;;;;;;;;5031945;28;20470;-46
2021/04/26 10:52:29;;;;;;;1.70;1.45;;;;;;;;;;5026509;28;20037;-46
2021/04/26 10:54:58;;;;;;;2.05;1.20;;;;;;;;;;5027668;28;20037;-46
2021/04/26 10:57:36;;;;;;;1.20;1.20;;;;;;;;;;5031194;28;20042;-46
2021/04/26 11:00:25;;;;;;;2.13;1.45;;;;;;;;;;5030238;28;20034;-50
2021/04/26 11:03:13;;;;;;;1.40;1.30;;;;;;;;;;5014671;28;20120;-46
2021/04/26 11:05:45;;;;;;;1.42;1.20;;;;;;;;;;5031123;28;20041;-47
2021/04/26 11:08:33;;;;;;;1.92;1.40;;;;;;;;;;5029004;28;20490;-47
2021/04/26 11:11:09;;;;;;;2.53;1.48;;;;;;;;;;5012546;28;20099;-47
2021/04/26 11:13:36;;;;;;;1.75;1.20;;;;;;;;;;5030641;28;20156;-47
2021/04/26 11:16:11;;;;;;;1.25;1.10;;;;;;;;;;5029918;28;20042;-47
2021/04/26 11:19:00;;;;;;;1.38;1.00;;;;;;;;;;5030780;28;20370;-46
2021/04/26 11:21:45;;;;;;;1.85;0.80;;;;;;;;;;5027276;28;20052;-48
2021/04/26 11:24:13;;;;;;;1.00;1.00;;;;;;;;;;5019292;28;20042;-47
2021/04/26 11:26:40;;;;;;;1.00;1.00;;;;;;;;;;5030087;28;20037;-48
2021/04/26 11:29:11;;;;;;;2.42;2.33;;;;;;;;;;5027249;28;20103;-47
2021/04/26 11:31:40;;;;;;;2.15;1.45;;;;;;;;;;5029370;28;20033;-46
2021/04/26 11:34:17;;;;;;;1.00;1.00;;;;;;;;;;5028809;28;20504;-48
2021/04/26 11:37:02;;;;;;;0.93;0.93;;;;;;;;;;5018873;28;20561;-50
2021/04/26 11:39:33;;;;;;;3.22;1.00;;;;;;;;;;5015880;28;20042;-50
2021/04/26 11:41:59;;;;;;;4.05;1.00;;;;;;;;;;5025916;28;20401;-45
2021/04/26 11:44:31;;;;;;;1.42;1.00;;;;;;;;;;5028552;28;20033;-46
2021/04/26 11:47:01;;;;;;;1.10;1.00;;;;;;;;;;5030057;28;20041;-47
2021/04/26 11:49:29;;;;;;;4.22;1.00;;;;;;;;;;5020680;28;20045;-46
2021/04/26 11:51:55;;;;;;;1.95;0.90;;;;;;;;;;5024536;28;20559;-45
2021/04/26 11:54:26;;;;;;;0.90;0.90;;;;;;;;;;5026460;28;20033;-46
2021/04/26 11:57:15;;;;;;;2.15;0.80;;;;;;;;;;5013294;28;20497;-45
2021/04/26 11:59:48;;;;;;;2.42;1.20;;;;;;;;;;5029036;28;20057;-49
2021/04/26 12:02:24;;;;;;;0.93;0.90;;;;;;;;;;5020875;28;20042;-47
2021/04/26 12:04:51;;;;;;;0.90;0.90;;;;;;;;;;5029591;28;20052;-46
2021/04/26 12:07:17;;;;;;;1.15;0.90;;;;;;;;;;5025616;28;20034;-48
2021/04/26 12:09:51;;;;;;;1.10;1.10;;;;;;;;;;5027583;28;20125;-45
2021/04/26 12:12:25;;;;;;;1.23;1.00;;;;;;;;;;5020118;28;20134;-45
2021/04/26 12:14:55;;;;;;;0.88;0.80;;;;;;;;;;5020042;28;20038;-45
2021/04/26 12:17:25;;;;;;;0.82;0.82;;;;;;;;;;5016866;28;20050;-47
2021/04/26 12:19:51;;;;;;;0.98;0.98;;;;;;;;;;5022344;28;20129;-46
2021/04/26 12:22:20;;;;;;;1.00;1.00;;;;;;;;;;5018974;28;20041;-45
2021/04/26 12:24:50;;;;;;;0.90;0.90;;;;;;;;;;5019269;28;20034;-46
2021/04/26 12:27:18;;;;;;;1.15;0.88;;;;;;;;;;5023011;28;20032;-46
2021/04/26 12:29:44;;;;;;;2.03;1.00;;;;;;;;;;5030563;28;20132;-45
2021/04/26 12:32:14;;;;;;;1.05;1.00;;;;;;;;;;5024656;28;20064;-45
2021/04/26 12:34:49;;;;;;;0.80;0.80;;;;;;;;;;5015044;28;20124;-44
2021/04/26 12:37:16;;;;;;;2.05;1.00;;;;;;;;;;5027952;28;20068;-44
2021/04/26 12:39:44;;;;;;;0.80;0.80;;;;;;;;;;5027920;28;20457;-44
2021/04/26 12:42:18;;;;;;;1.92;0.90;;;;;;;;;;5020769;28;20099;-43
2021/04/26 12:44:45;;;;;;;2.08;0.90;;;;;;;;;;5026318;28;20042;-44
2021/04/26 12:47:22;;;;;;;1.00;1.00;;;;;;;;;;5028860;28;20053;-43
2021/04/26 12:49:49;;;;;;;2.47;1.35;;;;;;;;;;5029023;28;20042;-43
2021/04/26 12:52:18;;;;;;;1.00;0.90;;;;;;;;;;5027952;28;20045;-43
2021/04/26 12:55:01;;;;;;;1.60;1.00;;;;;;;;;;5013098;28;20128;-43
2021/04/26 12:57:28;;;;;;;0.80;0.80;;;;;;;;;;5027883;28;20045;-44
2021/04/26 12:59:54;;;;;;;3.90;1.00;;;;;;;;;;5027894;28;20127;-44
2021/04/26 13:02:24;;;;;;;1.45;1.10;;;;;;;;;;5029322;28;20045;-44
2021/04/26 13:04:52;;;;;;;0.90;0.90;;;;;;;;;;5027329;28;20073;-43
2021/04/26 13:07:18;;;;;;;2.78;2.58;;;;;;;;;;5017049;28;20586;-43
2021/04/26 13:09:45;;;;;;;1.58;0.90;;;;;;;;;;5027077;28;20399;-44
2021/04/26 13:12:12;;;;;;;2.17;0.90;;;;;;;;;;5017738;28;20092;-43
2021/04/26 13:14:39;;;;;;;2.80;0.93;;;;;;;;;;5026884;28;20085;-43
2021/04/26 13:17:08;;;;;;;2.70;1.00;;;;;;;;;;5026349;28;20033;-44
2021/04/26 13:19:36;;;;;;;2.95;1.00;;;;;;;;;;5027401;28;20781;-43
2021/04/26 13:22:02;;;;;;;0.90;0.90;;;;;;;;;;5026492;28;20533;-47
2021/04/26 13:24:31;;;;;;;0.88;0.88;;;;;;;;;;5028362;28;20038;-45
2021/04/26 13:27:02;;;;;;;0.90;0.90;;;;;;;;;;5024520;28;20057;-43
2021/04/26 13:29:33;;;;;;;4.32;0.90;;;;;;;;;;5022562;28;20128;-43
2021/04/26 13:32:01;;;;;;;0.90;0.90;;;;;;;;;;5033305;28;20046;-45
2021/04/26 13:34:28;;;;;;;0.90;0.90;;;;;;;;;;5029480;28;20051;-48
2021/04/26 13:36:55;;;;;;;1.13;0.95;;;;;;;;;;5032267;28;20064;-42
2021/04/26 13:39:21;;;;;;;1.30;0.90;;;;;;;;;;5027700;28;20512;-45
2021/04/26 13:41:48;;;;;;;2.45;0.90;;;;;;;;;;5030760;28;20091;-44
2021/04/26 13:44:15;;;;;;;0.80;0.80;;;;;;;;;;5033359;28;20068;-45
2021/04/26 13:46:42;;;;;;;0.80;0.80;;;;;;;;;;5030931;28;20054;-44
2021/04/26 13:49:08;;;;;;;0.77;0.77;;;;;;;;;;5031620;28;20315;-48
2021/04/26 13:51:39;;;;;;;0.80;0.80;;;;;;;;;;5026475;28;20042;-47
2021/04/26 13:54:06;;;;;;;1.25;0.80;;;;;;;;;;5032010;28;20469;-45
2021/04/26 13:56:34;;;;;;;0.80;0.80;;;;;;;;;;5021460;28;20038;-46
2021/04/26 13:59:00;;;;;;;1.45;0.82;;;;;;;;;;5024554;28;20045;-44
2021/04/26 14:01:26;;;;;;;1.58;1.05;;;;;;;;;;5030730;28;20041;-46
2021/04/26 14:03:54;;;;;;;1.98;0.88;;;;;;;;;;5027409;28;20050;-45
2021/04/26 14:06:21;;;;;;;1.58;0.80;;;;;;;;;;5028239;28;20479;-43
2021/04/26 14:08:48;;;;;;;0.90;0.80;;;;;;;;;;5021243;28;20042;-46
2021/04/26 14:11:14;;;;;;;1.75;0.80;;;;;;;;;;5021305;28;20597;-44
2021/04/26 14:13:41;;;;;;;1.55;0.90;;;;;;;;;;5033023;28;20355;-44
2021/04/26 14:16:07;;;;;;;0.80;0.80;;;;;;;;;;5030929;28;20041;-44
2021/04/26 14:18:33;;;;;;;1.10;0.80;;;;;;;;;;5028973;28;20096;-44
2021/04/26 14:21:00;;;;;;;0.80;0.80;;;;;;;;;;5023646;28;20104;-44
2021/04/26 14:23:26;;;;;;;2.17;0.90;;;;;;;;;;5020391;28;20052;-43
2021/04/26 14:25:53;;;;;;;2.75;0.90;;;;;;;;;;5031497;28;20468;-43
2021/04/26 14:28:19;;;;;;;2.05;1.00;;;;;;;;;;5028563;28;20128;-44
2021/04/26 14:30:46;;;;;;;1.25;0.80;;;;;;;;;;5025940;28;20435;-45
2021/04/26 14:33:13;;;;;;;0.80;0.80;;;;;;;;;;5029161;28;20118;-45
2021/04/26 14:35:42;;;;;;;2.22;0.80;;;;;;;;;;5018321;28;20041;-47
2021/04/26 14:38:09;;;;;;;0.70;0.70;;;;;;;;;;5030999;28;20033;-46
2021/04/26 14:40:36;;;;;;;2.55;0.90;;;;;;;;;;5030368;28;20041;-44
2021/04/26 14:43:03;;;;;;;2.00;0.80;;;;;;;;;;5029252;28;20117;-48
2021/04/26 14:45:29;;;;;;;2.15;0.90;;;;;;;;;;5029369;28;20087;-43
2021/04/26 14:47:56;;;;;;;3.22;0.73;;;;;;;;;;5030593;28;20045;-43